sensor_id;sensor_type;location;lat;lon;timestamp;P1;durP1;ratioP1;P2;durP2;ratioP2
29916;SDS011;16786;49.466;11.068;2022-12-29T00:02:17;7.93;;;3.40;;
29916;SDS011;16786;49.466;11.068;2022-12-29T00:04:45;8.02;;;3.60;;
29916;SDS011;16786;49.466;11.068;2022-12-29T00:07:12;8.40;;;3.78;;
29916;SDS011;16786;49.466;11.068;2022-12-29T00:09:39;9.20;;;3.38;;
29916;SDS011;16786;49.466;11.068;2022-12-29T00:12:07;7.80;;;3.75;;
29916;SDS011;16786;49.466;11.068;2022-12-29T00:14:34;11.52;;;6.45;;
29916;SDS011;16786;49.466;11.068;2022-12-29T00:17:20;6.97;;;4.25;;
29916;SDS011;16786;49.466;11.068;2022-12-29T00:19:47;7.78;;;3.53;;
29916;SDS011;16786;49.466;11.068;2022-12-29T00:22:33;5.18;;;3.05;;
29916;SDS011;16786;49.466;11.068;2022-12-29T00:25:19;5.88;;;3.08;;
29916;SDS011;16786;49.466;11.068;2022-12-29T00:28:07;4.78;;;2.80;;
29916;SDS011;16786;49.466;11.068;2022-12-29T00:30:58;4.68;;;3.00;;
29916;SDS011;16786;49.466;11.068;2022-12-29T00:33:44;5.88;;;2.70;;
29916;SDS011;16786;49.466;11.068;2022-12-29T00:36:31;4.68;;;2.70;;
29916;SDS011;16786;49.466;11.068;2022-12-29T00:39:07;5.63;;;2.90;;
29916;SDS011;16786;49.466;11.068;2022-12-29T00:42:02;4.85;;;2.63;;
29916;SDS011;16786;49.466;11.068;2022-12-29T00:45:05;5.50;;;2.90;;
29916;SDS011;16786;49.466;11.068;2022-12-29T00:47:33;5.78;;;2.67;;
29916;SDS011;16786;49.466;11.068;2022-12-29T00:50:00;5.45;;;2.55;;
29916;SDS011;16786;49.466;11.068;2022-12-29T00:52:28;5.13;;;3.20;;
29916;SDS011;16786;49.466;11.068;2022-12-29T00:54:56;5.78;;;2.45;;
29916;SDS011;16786;49.466;11.068;2022-12-29T00:57:23;4.35;;;2.45;;
29916;SDS011;16786;49.466;11.068;2022-12-29T00:59:51;3.88;;;2.30;;
29916;SDS011;16786;49.466;11.068;2022-12-29T01:02:18;6.80;;;2.70;;
29916;SDS011;16786;49.466;11.068;2022-12-29T01:04:46;4.93;;;2.50;;
29916;SDS011;16786;49.466;11.068;2022-12-29T01:07:15;8.23;;;3.13;;
29916;SDS011;16786;49.466;11.068;2022-12-29T01:09:45;4.88;;;2.80;;
29916;SDS011;16786;49.466;11.068;2022-12-29T01:12:32;5.45;;;2.88;;
29916;SDS011;16786;49.466;11.068;2022-12-29T01:15:12;4.40;;;2.50;;
29916;SDS011;16786;49.466;11.068;2022-12-29T01:17:41;5.78;;;2.90;;
29916;SDS011;16786;49.466;11.068;2022-12-29T01:20:09;4.00;;;2.53;;
29916;SDS011;16786;49.466;11.068;2022-12-29T01:22:38;4.97;;;2.40;;
29916;SDS011;16786;49.466;11.068;2022-12-29T01:25:06;3.85;;;2.33;;
29916;SDS011;16786;49.466;11.068;2022-12-29T01:27:34;5.00;;;2.60;;
29916;SDS011;16786;49.466;11.068;2022-12-29T01:30:01;6.30;;;2.92;;
29916;SDS011;16786;49.466;11.068;2022-12-29T01:32:30;4.10;;;2.70;;
29916;SDS011;16786;49.466;11.068;2022-12-29T01:34:58;5.45;;;2.63;;
29916;SDS011;16786;49.466;11.068;2022-12-29T01:37:25;6.25;;;2.90;;
29916;SDS011;16786;49.466;11.068;2022-12-29T01:39:53;4.57;;;2.80;;
29916;SDS011;16786;49.466;11.068;2022-12-29T01:42:22;6.55;;;2.67;;
29916;SDS011;16786;49.466;11.068;2022-12-29T01:44:58;6.97;;;2.97;;
29916;SDS011;16786;49.466;11.068;2022-12-29T01:50:00;5.53;;;2.72;;
29916;SDS011;16786;49.466;11.068;2022-12-29T01:52:55;5.47;;;2.70;;
29916;SDS011;16786;49.466;11.068;2022-12-29T01:55:27;4.22;;;2.72;;
29916;SDS011;16786;49.466;11.068;2022-12-29T01:57:58;4.88;;;2.70;;
29916;SDS011;16786;49.466;11.068;2022-12-29T02:02:57;4.53;;;2.60;;
29916;SDS011;16786;49.466;11.068;2022-12-29T02:05:35;5.75;;;2.80;;
29916;SDS011;16786;49.466;11.068;2022-12-29T02:08:03;4.47;;;2.50;;
29916;SDS011;16786;49.466;11.068;2022-12-29T02:10:33;4.82;;;2.72;;
29916;SDS011;16786;49.466;11.068;2022-12-29T02:13:02;4.85;;;2.78;;
29916;SDS011;16786;49.466;11.068;2022-12-29T02:30:03;4.13;;;2.65;;
29916;SDS011;16786;49.466;11.068;2022-12-29T02:38:44;4.80;;;2.67;;
29916;SDS011;16786;49.466;11.068;2022-12-29T02:46:27;7.43;;;3.35;;
29916;SDS011;16786;49.466;11.068;2022-12-29T02:51:51;5.85;;;2.72;;
29916;SDS011;16786;49.466;11.068;2022-12-29T02:54:27;7.50;;;2.67;;
29916;SDS011;16786;49.466;11.068;2022-12-29T02:57:33;4.30;;;2.88;;
29916;SDS011;16786;49.466;11.068;2022-12-29T03:07:43;7.63;;;3.38;;
29916;SDS011;16786;49.466;11.068;2022-12-29T03:13:04;5.25;;;2.97;;
29916;SDS011;16786;49.466;11.068;2022-12-29T03:16:06;5.13;;;3.03;;
29916;SDS011;16786;49.466;11.068;2022-12-29T03:18:41;5.25;;;2.83;;
29916;SDS011;16786;49.466;11.068;2022-12-29T03:23:46;5.53;;;2.78;;
29916;SDS011;16786;49.466;11.068;2022-12-29T03:26:17;10.65;;;3.13;;
29916;SDS011;16786;49.466;11.068;2022-12-29T03:28:51;5.22;;;3.28;;
29916;SDS011;16786;49.466;11.068;2022-12-29T03:31:24;5.60;;;3.15;;
29916;SDS011;16786;49.466;11.068;2022-12-29T03:33:53;4.40;;;2.72;;
29916;SDS011;16786;49.466;11.068;2022-12-29T03:36:26;4.70;;;2.50;;
29916;SDS011;16786;49.466;11.068;2022-12-29T03:39:00;4.05;;;2.30;;
29916;SDS011;16786;49.466;11.068;2022-12-29T03:41:33;4.25;;;2.60;;
29916;SDS011;16786;49.466;11.068;2022-12-29T03:44:04;5.63;;;2.50;;
29916;SDS011;16786;49.466;11.068;2022-12-29T03:46:33;4.45;;;2.75;;
29916;SDS011;16786;49.466;11.068;2022-12-29T03:49:01;5.55;;;2.55;;
29916;SDS011;16786;49.466;11.068;2022-12-29T03:51:29;4.85;;;2.83;;
29916;SDS011;16786;49.466;11.068;2022-12-29T03:53:57;4.63;;;2.17;;
29916;SDS011;16786;49.466;11.068;2022-12-29T03:56:24;4.70;;;2.60;;
29916;SDS011;16786;49.466;11.068;2022-12-29T03:58:52;3.97;;;2.42;;
29916;SDS011;16786;49.466;11.068;2022-12-29T04:01:29;5.50;;;2.92;;
29916;SDS011;16786;49.466;11.068;2022-12-29T04:03:56;4.90;;;3.17;;
29916;SDS011;16786;49.466;11.068;2022-12-29T04:06:24;4.63;;;2.83;;
29916;SDS011;16786;49.466;11.068;2022-12-29T04:08:58;7.90;;;2.97;;
29916;SDS011;16786;49.466;11.068;2022-12-29T04:11:27;4.72;;;2.65;;
29916;SDS011;16786;49.466;11.068;2022-12-29T04:14:00;4.35;;;2.50;;
29916;SDS011;16786;49.466;11.068;2022-12-29T04:16:29;5.18;;;2.85;;
29916;SDS011;16786;49.466;11.068;2022-12-29T04:18:56;4.72;;;2.50;;
29916;SDS011;16786;49.466;11.068;2022-12-29T04:21:24;5.00;;;2.67;;
29916;SDS011;16786;49.466;11.068;2022-12-29T04:23:51;6.80;;;2.60;;
29916;SDS011;16786;49.466;11.068;2022-12-29T04:26:19;9.13;;;2.80;;
29916;SDS011;16786;49.466;11.068;2022-12-29T04:29:07;5.85;;;2.97;;
29916;SDS011;16786;49.466;11.068;2022-12-29T04:32:03;4.38;;;2.80;;
29916;SDS011;16786;49.466;11.068;2022-12-29T04:34:33;4.20;;;2.50;;
29916;SDS011;16786;49.466;11.068;2022-12-29T04:37:01;5.53;;;2.67;;
29916;SDS011;16786;49.466;11.068;2022-12-29T04:39:28;5.75;;;2.88;;
29916;SDS011;16786;49.466;11.068;2022-12-29T04:41:56;3.90;;;2.38;;
29916;SDS011;16786;49.466;11.068;2022-12-29T04:44:24;4.68;;;2.78;;
29916;SDS011;16786;49.466;11.068;2022-12-29T04:47:03;4.53;;;2.90;;
29916;SDS011;16786;49.466;11.068;2022-12-29T04:49:54;4.38;;;2.72;;
29916;SDS011;16786;49.466;11.068;2022-12-29T04:52:41;4.70;;;2.38;;
29916;SDS011;16786;49.466;11.068;2022-12-29T04:55:10;4.20;;;2.50;;
29916;SDS011;16786;49.466;11.068;2022-12-29T04:57:39;4.80;;;2.30;;
29916;SDS011;16786;49.466;11.068;2022-12-29T05:00:08;3.72;;;2.40;;
29916;SDS011;16786;49.466;11.068;2022-12-29T05:02:36;4.43;;;2.70;;
29916;SDS011;16786;49.466;11.068;2022-12-29T05:05:04;4.65;;;2.65;;
29916;SDS011;16786;49.466;11.068;2022-12-29T05:07:37;4.65;;;2.70;;
29916;SDS011;16786;49.466;11.068;2022-12-29T05:10:05;5.35;;;2.88;;
29916;SDS011;16786;49.466;11.068;2022-12-29T05:12:34;4.75;;;2.60;;
29916;SDS011;16786;49.466;11.068;2022-12-29T05:15:03;4.95;;;2.60;;
29916;SDS011;16786;49.466;11.068;2022-12-29T05:17:31;6.10;;;2.70;;
29916;SDS011;16786;49.466;11.068;2022-12-29T05:19:59;5.47;;;2.65;;
29916;SDS011;16786;49.466;11.068;2022-12-29T05:22:26;4.70;;;2.60;;
29916;SDS011;16786;49.466;11.068;2022-12-29T05:24:55;5.18;;;2.55;;
29916;SDS011;16786;49.466;11.068;2022-12-29T05:27:22;4.60;;;2.78;;
29916;SDS011;16786;49.466;11.068;2022-12-29T05:30:19;5.10;;;2.42;;
29916;SDS011;16786;49.466;11.068;2022-12-29T05:32:46;6.35;;;3.03;;
29916;SDS011;16786;49.466;11.068;2022-12-29T05:35:14;7.03;;;2.63;;
29916;SDS011;16786;49.466;11.068;2022-12-29T05:37:41;5.93;;;2.70;;
29916;SDS011;16786;49.466;11.068;2022-12-29T05:40:09;5.15;;;2.80;;
29916;SDS011;16786;49.466;11.068;2022-12-29T05:42:37;5.60;;;2.75;;
29916;SDS011;16786;49.466;11.068;2022-12-29T05:45:14;9.15;;;3.05;;
29916;SDS011;16786;49.466;11.068;2022-12-29T05:48:05;4.97;;;2.60;;
29916;SDS011;16786;49.466;11.068;2022-12-29T05:50:56;5.50;;;2.78;;
29916;SDS011;16786;49.466;11.068;2022-12-29T05:53:31;6.43;;;3.42;;
29916;SDS011;16786;49.466;11.068;2022-12-29T05:55:59;7.22;;;3.00;;
29916;SDS011;16786;49.466;11.068;2022-12-29T05:58:27;4.82;;;3.05;;
29916;SDS011;16786;49.466;11.068;2022-12-29T06:00:54;6.38;;;2.92;;
29916;SDS011;16786;49.466;11.068;2022-12-29T06:03:22;5.68;;;2.88;;
29916;SDS011;16786;49.466;11.068;2022-12-29T06:05:50;4.22;;;2.58;;
29916;SDS011;16786;49.466;11.068;2022-12-29T06:08:18;4.57;;;2.80;;
29916;SDS011;16786;49.466;11.068;2022-12-29T06:10:47;5.32;;;2.80;;
29916;SDS011;16786;49.466;11.068;2022-12-29T06:13:15;6.32;;;3.05;;
29916;SDS011;16786;49.466;11.068;2022-12-29T06:15:44;7.57;;;3.13;;
29916;SDS011;16786;49.466;11.068;2022-12-29T06:18:11;5.28;;;3.00;;
29916;SDS011;16786;49.466;11.068;2022-12-29T06:20:45;6.50;;;2.95;;
29916;SDS011;16786;49.466;11.068;2022-12-29T06:23:12;5.35;;;2.53;;
29916;SDS011;16786;49.466;11.068;2022-12-29T06:25:40;7.10;;;2.72;;
29916;SDS011;16786;49.466;11.068;2022-12-29T06:28:07;9.27;;;2.97;;
29916;SDS011;16786;49.466;11.068;2022-12-29T06:30:35;4.05;;;2.50;;
29916;SDS011;16786;49.466;11.068;2022-12-29T06:33:03;4.10;;;2.75;;
29916;SDS011;16786;49.466;11.068;2022-12-29T06:35:31;4.13;;;2.67;;
29916;SDS011;16786;49.466;11.068;2022-12-29T06:37:58;6.07;;;2.38;;
29916;SDS011;16786;49.466;11.068;2022-12-29T06:40:26;5.65;;;2.90;;
29916;SDS011;16786;49.466;11.068;2022-12-29T06:43:02;5.90;;;2.70;;
29916;SDS011;16786;49.466;11.068;2022-12-29T06:45:48;5.60;;;2.90;;
29916;SDS011;16786;49.466;11.068;2022-12-29T06:48:15;5.93;;;2.70;;
29916;SDS011;16786;49.466;11.068;2022-12-29T06:50:43;6.18;;;2.80;;
29916;SDS011;16786;49.466;11.068;2022-12-29T06:53:10;4.03;;;2.47;;
29916;SDS011;16786;49.466;11.068;2022-12-29T06:55:37;4.43;;;2.38;;
29916;SDS011;16786;49.466;11.068;2022-12-29T06:58:05;8.25;;;2.85;;
29916;SDS011;16786;49.466;11.068;2022-12-29T07:00:32;6.47;;;2.70;;
29916;SDS011;16786;49.466;11.068;2022-12-29T07:03:00;4.78;;;2.50;;
29916;SDS011;16786;49.466;11.068;2022-12-29T07:05:27;4.40;;;2.83;;
29916;SDS011;16786;49.466;11.068;2022-12-29T07:07:58;5.88;;;3.00;;
29916;SDS011;16786;49.466;11.068;2022-12-29T07:10:25;6.20;;;2.65;;
29916;SDS011;16786;49.466;11.068;2022-12-29T07:12:53;7.57;;;2.88;;
29916;SDS011;16786;49.466;11.068;2022-12-29T07:15:20;7.60;;;3.42;;
29916;SDS011;16786;49.466;11.068;2022-12-29T07:17:47;7.18;;;3.22;;
29916;SDS011;16786;49.466;11.068;2022-12-29T07:20:16;6.00;;;3.10;;
29916;SDS011;16786;49.466;11.068;2022-12-29T07:22:52;4.88;;;3.17;;
29916;SDS011;16786;49.466;11.068;2022-12-29T07:25:19;5.53;;;2.97;;
29916;SDS011;16786;49.466;11.068;2022-12-29T07:27:46;5.97;;;2.80;;
29916;SDS011;16786;49.466;11.068;2022-12-29T07:30:15;5.68;;;2.40;;
29916;SDS011;16786;49.466;11.068;2022-12-29T07:32:43;4.72;;;2.88;;
29916;SDS011;16786;49.466;11.068;2022-12-29T07:35:10;4.57;;;2.70;;
29916;SDS011;16786;49.466;11.068;2022-12-29T07:37:37;6.53;;;2.50;;
29916;SDS011;16786;49.466;11.068;2022-12-29T07:40:05;5.68;;;2.63;;
29916;SDS011;16786;49.466;11.068;2022-12-29T07:42:33;5.93;;;2.67;;
29916;SDS011;16786;49.466;11.068;2022-12-29T07:45:00;4.30;;;2.50;;
29916;SDS011;16786;49.466;11.068;2022-12-29T07:47:54;4.03;;;2.45;;
29916;SDS011;16786;49.466;11.068;2022-12-29T07:50:21;7.50;;;2.85;;
29916;SDS011;16786;49.466;11.068;2022-12-29T07:52:49;6.72;;;2.65;;
29916;SDS011;16786;49.466;11.068;2022-12-29T07:55:16;4.13;;;2.58;;
29916;SDS011;16786;49.466;11.068;2022-12-29T07:57:44;5.32;;;2.83;;
29916;SDS011;16786;49.466;11.068;2022-12-29T08:00:11;10.55;;;2.83;;
29916;SDS011;16786;49.466;11.068;2022-12-29T08:02:39;4.72;;;2.70;;
29916;SDS011;16786;49.466;11.068;2022-12-29T08:05:06;5.70;;;3.03;;
29916;SDS011;16786;49.466;11.068;2022-12-29T08:07:34;5.13;;;2.90;;
29916;SDS011;16786;49.466;11.068;2022-12-29T08:10:01;5.25;;;2.65;;
29916;SDS011;16786;49.466;11.068;2022-12-29T08:12:29;5.68;;;2.80;;
29916;SDS011;16786;49.466;11.068;2022-12-29T08:14:57;6.10;;;2.90;;
29916;SDS011;16786;49.466;11.068;2022-12-29T08:17:24;9.52;;;3.25;;
29916;SDS011;16786;49.466;11.068;2022-12-29T08:19:52;4.65;;;2.72;;
29916;SDS011;16786;49.466;11.068;2022-12-29T08:22:19;7.03;;;2.80;;
29916;SDS011;16786;49.466;11.068;2022-12-29T08:24:46;6.40;;;2.90;;
29916;SDS011;16786;49.466;11.068;2022-12-29T08:27:14;6.70;;;2.83;;
29916;SDS011;16786;49.466;11.068;2022-12-29T08:29:46;7.88;;;3.03;;
29916;SDS011;16786;49.466;11.068;2022-12-29T08:32:14;6.80;;;3.25;;
29916;SDS011;16786;49.466;11.068;2022-12-29T08:34:42;10.48;;;3.35;;
29916;SDS011;16786;49.466;11.068;2022-12-29T08:37:09;7.82;;;2.70;;
29916;SDS011;16786;49.466;11.068;2022-12-29T08:39:37;5.82;;;2.60;;
29916;SDS011;16786;49.466;11.068;2022-12-29T08:42:04;4.25;;;2.65;;
29916;SDS011;16786;49.466;11.068;2022-12-29T08:44:32;9.55;;;2.70;;
29916;SDS011;16786;49.466;11.068;2022-12-29T08:46:59;5.45;;;2.42;;
29916;SDS011;16786;49.466;11.068;2022-12-29T08:49:27;7.25;;;2.80;;
29916;SDS011;16786;49.466;11.068;2022-12-29T08:51:54;4.28;;;2.47;;
29916;SDS011;16786;49.466;11.068;2022-12-29T08:54:22;4.97;;;2.65;;
29916;SDS011;16786;49.466;11.068;2022-12-29T08:56:49;8.50;;;2.70;;
29916;SDS011;16786;49.466;11.068;2022-12-29T08:59:17;6.00;;;2.55;;
29916;SDS011;16786;49.466;11.068;2022-12-29T09:01:46;5.90;;;2.60;;
29916;SDS011;16786;49.466;11.068;2022-12-29T09:04:14;5.97;;;2.92;;
29916;SDS011;16786;49.466;11.068;2022-12-29T09:06:43;5.63;;;2.67;;
29916;SDS011;16786;49.466;11.068;2022-12-29T09:09:11;6.53;;;2.97;;
29916;SDS011;16786;49.466;11.068;2022-12-29T09:11:39;5.72;;;2.65;;
29916;SDS011;16786;49.466;11.068;2022-12-29T09:14:06;7.00;;;2.92;;
29916;SDS011;16786;49.466;11.068;2022-12-29T09:16:34;4.85;;;2.80;;
29916;SDS011;16786;49.466;11.068;2022-12-29T09:19:02;4.78;;;2.63;;
29916;SDS011;16786;49.466;11.068;2022-12-29T09:21:30;5.32;;;2.85;;
29916;SDS011;16786;49.466;11.068;2022-12-29T09:23:58;4.82;;;2.60;;
29916;SDS011;16786;49.466;11.068;2022-12-29T09:26:25;10.70;;;4.57;;
29916;SDS011;16786;49.466;11.068;2022-12-29T09:28:53;4.55;;;3.08;;
29916;SDS011;16786;49.466;11.068;2022-12-29T09:31:20;5.05;;;3.08;;
29916;SDS011;16786;49.466;11.068;2022-12-29T09:33:48;6.80;;;2.70;;
29916;SDS011;16786;49.466;11.068;2022-12-29T09:36:16;7.80;;;2.70;;
29916;SDS011;16786;49.466;11.068;2022-12-29T09:38:43;5.10;;;2.67;;
29916;SDS011;16786;49.466;11.068;2022-12-29T09:41:13;7.82;;;3.15;;
29916;SDS011;16786;49.466;11.068;2022-12-29T09:46:37;5.00;;;3.00;;
29916;SDS011;16786;49.466;11.068;2022-12-29T09:51:50;5.00;;;2.92;;
29916;SDS011;16786;49.466;11.068;2022-12-29T09:57:22;6.72;;;2.80;;
29916;SDS011;16786;49.466;11.068;2022-12-29T09:59:59;7.20;;;2.47;;
29916;SDS011;16786;49.466;11.068;2022-12-29T10:02:49;5.15;;;2.83;;
29916;SDS011;16786;49.466;11.068;2022-12-29T10:05:36;7.15;;;2.90;;
29916;SDS011;16786;49.466;11.068;2022-12-29T10:10:58;6.00;;;2.83;;
29916;SDS011;16786;49.466;11.068;2022-12-29T10:13:41;4.80;;;2.70;;
29916;SDS011;16786;49.466;11.068;2022-12-29T10:21:20;6.43;;;3.80;;
29916;SDS011;16786;49.466;11.068;2022-12-29T10:24:07;6.20;;;3.22;;
29916;SDS011;16786;49.466;11.068;2022-12-29T10:26:42;7.20;;;3.13;;
29916;SDS011;16786;49.466;11.068;2022-12-29T10:29:24;7.10;;;2.90;;
29916;SDS011;16786;49.466;11.068;2022-12-29T10:31:59;6.55;;;2.78;;
29916;SDS011;16786;49.466;11.068;2022-12-29T10:34:31;7.20;;;2.90;;
29916;SDS011;16786;49.466;11.068;2022-12-29T10:39:45;5.80;;;2.83;;
29916;SDS011;16786;49.466;11.068;2022-12-29T10:42:36;4.45;;;2.92;;
29916;SDS011;16786;49.466;11.068;2022-12-29T10:45:15;7.47;;;3.15;;
29916;SDS011;16786;49.466;11.068;2022-12-29T10:47:49;6.38;;;3.33;;
29916;SDS011;16786;49.466;11.068;2022-12-29T10:50:24;5.38;;;2.90;;
29916;SDS011;16786;49.466;11.068;2022-12-29T10:52:53;6.93;;;3.00;;
29916;SDS011;16786;49.466;11.068;2022-12-29T10:55:24;4.72;;;2.78;;
29916;SDS011;16786;49.466;11.068;2022-12-29T10:57:59;8.25;;;3.25;;
29916;SDS011;16786;49.466;11.068;2022-12-29T11:00:31;8.15;;;3.00;;
29916;SDS011;16786;49.466;11.068;2022-12-29T11:06:03;6.78;;;2.90;;
29916;SDS011;16786;49.466;11.068;2022-12-29T11:08:50;4.30;;;2.72;;
29916;SDS011;16786;49.466;11.068;2022-12-29T11:11:23;5.82;;;3.25;;
29916;SDS011;16786;49.466;11.068;2022-12-29T11:13:57;5.85;;;3.40;;
29916;SDS011;16786;49.466;11.068;2022-12-29T11:16:30;5.63;;;2.95;;
29916;SDS011;16786;49.466;11.068;2022-12-29T11:21:32;5.00;;;3.00;;
29916;SDS011;16786;49.466;11.068;2022-12-29T11:24:20;6.22;;;3.15;;
29916;SDS011;16786;49.466;11.068;2022-12-29T11:26:52;5.50;;;2.83;;
29916;SDS011;16786;49.466;11.068;2022-12-29T11:29:37;5.43;;;2.55;;
29916;SDS011;16786;49.466;11.068;2022-12-29T11:34:58;7.03;;;3.22;;
29916;SDS011;16786;49.466;11.068;2022-12-29T11:39:59;5.43;;;2.88;;
29916;SDS011;16786;49.466;11.068;2022-12-29T11:42:35;6.40;;;3.08;;
29916;SDS011;16786;49.466;11.068;2022-12-29T11:45:26;5.35;;;2.80;;
29916;SDS011;16786;49.466;11.068;2022-12-29T11:48:07;5.07;;;2.83;;
29916;SDS011;16786;49.466;11.068;2022-12-29T11:50:40;5.60;;;2.92;;
29916;SDS011;16786;49.466;11.068;2022-12-29T11:56:04;7.03;;;2.80;;
29916;SDS011;16786;49.466;11.068;2022-12-29T11:58:36;7.30;;;3.55;;
29916;SDS011;16786;49.466;11.068;2022-12-29T12:04:06;6.20;;;3.03;;
29916;SDS011;16786;49.466;11.068;2022-12-29T12:06:44;6.63;;;3.33;;
29916;SDS011;16786;49.466;11.068;2022-12-29T12:09:31;5.72;;;2.70;;
29916;SDS011;16786;49.466;11.068;2022-12-29T12:12:03;5.03;;;2.72;;
29916;SDS011;16786;49.466;11.068;2022-12-29T12:14:38;7.53;;;2.85;;
29916;SDS011;16786;49.466;11.068;2022-12-29T12:17:40;5.22;;;2.88;;
29916;SDS011;16786;49.466;11.068;2022-12-29T12:25:54;5.65;;;2.65;;
29916;SDS011;16786;49.466;11.068;2022-12-29T12:28:59;5.68;;;3.00;;
29916;SDS011;16786;49.466;11.068;2022-12-29T12:34:35;3.40;;;2.60;;
29916;SDS011;16786;49.466;11.068;2022-12-29T12:53:39;8.18;;;3.63;;
29916;SDS011;16786;49.466;11.068;2022-12-29T13:02:06;5.40;;;2.35;;
29916;SDS011;16786;49.466;11.068;2022-12-29T13:15:44;5.22;;;2.50;;
29916;SDS011;16786;49.466;11.068;2022-12-29T13:21:25;7.10;;;2.40;;
29916;SDS011;16786;49.466;11.068;2022-12-29T13:24:36;7.60;;;2.75;;
29916;SDS011;16786;49.466;11.068;2022-12-29T13:30:13;5.47;;;2.97;;
29916;SDS011;16786;49.466;11.068;2022-12-29T13:38:18;7.82;;;2.88;;
29916;SDS011;16786;49.466;11.068;2022-12-29T13:40:51;4.38;;;3.00;;
29916;SDS011;16786;49.466;11.068;2022-12-29T13:43:22;6.10;;;2.92;;
29916;SDS011;16786;49.466;11.068;2022-12-29T13:45:59;7.70;;;3.58;;
29916;SDS011;16786;49.466;11.068;2022-12-29T13:48:36;5.88;;;2.78;;
29916;SDS011;16786;49.466;11.068;2022-12-29T13:51:07;6.05;;;2.97;;
29916;SDS011;16786;49.466;11.068;2022-12-29T13:56:31;8.60;;;3.45;;
29916;SDS011;16786;49.466;11.068;2022-12-29T14:07:45;6.25;;;3.15;;
29916;SDS011;16786;49.466;11.068;2022-12-29T14:13:00;5.22;;;3.08;;
29916;SDS011;16786;49.466;11.068;2022-12-29T14:15:44;6.85;;;3.35;;
29916;SDS011;16786;49.466;11.068;2022-12-29T14:18:21;5.07;;;3.35;;
29916;SDS011;16786;49.466;11.068;2022-12-29T14:21:00;5.68;;;2.90;;
29916;SDS011;16786;49.466;11.068;2022-12-29T14:23:46;5.43;;;3.08;;
29916;SDS011;16786;49.466;11.068;2022-12-29T14:29:15;5.25;;;3.10;;
29916;SDS011;16786;49.466;11.068;2022-12-29T14:32:07;6.68;;;3.25;;
29916;SDS011;16786;49.466;11.068;2022-12-29T14:34:57;6.22;;;2.85;;
29916;SDS011;16786;49.466;11.068;2022-12-29T14:40:16;6.00;;;2.78;;
29916;SDS011;16786;49.466;11.068;2022-12-29T14:42:47;4.97;;;2.67;;
29916;SDS011;16786;49.466;11.068;2022-12-29T14:47:44;5.50;;;3.30;;
29916;SDS011;16786;49.466;11.068;2022-12-29T14:50:13;5.60;;;3.03;;
29916;SDS011;16786;49.466;11.068;2022-12-29T14:52:48;7.13;;;3.20;;
29916;SDS011;16786;49.466;11.068;2022-12-29T14:55:46;7.78;;;3.17;;
29916;SDS011;16786;49.466;11.068;2022-12-29T14:58:20;5.63;;;3.17;;
29916;SDS011;16786;49.466;11.068;2022-12-29T15:00:58;7.15;;;3.72;;
29916;SDS011;16786;49.466;11.068;2022-12-29T15:03:30;9.70;;;4.15;;
29916;SDS011;16786;49.466;11.068;2022-12-29T15:06:07;6.90;;;3.90;;
29916;SDS011;16786;49.466;11.068;2022-12-29T15:11:40;6.25;;;3.08;;
29916;SDS011;16786;49.466;11.068;2022-12-29T15:14:36;8.20;;;3.60;;
29916;SDS011;16786;49.466;11.068;2022-12-29T15:17:25;7.57;;;3.67;;
29916;SDS011;16786;49.466;11.068;2022-12-29T15:19:55;8.68;;;3.13;;
29916;SDS011;16786;49.466;11.068;2022-12-29T15:22:23;6.25;;;3.20;;
29916;SDS011;16786;49.466;11.068;2022-12-29T15:24:52;6.38;;;3.33;;
29916;SDS011;16786;49.466;11.068;2022-12-29T15:27:21;10.88;;;3.63;;
29916;SDS011;16786;49.466;11.068;2022-12-29T15:29:58;7.45;;;3.30;;
29916;SDS011;16786;49.466;11.068;2022-12-29T15:32:39;6.63;;;2.92;;
29916;SDS011;16786;49.466;11.068;2022-12-29T15:38:15;6.13;;;3.30;;
29916;SDS011;16786;49.466;11.068;2022-12-29T15:40:59;8.30;;;3.95;;
29916;SDS011;16786;49.466;11.068;2022-12-29T15:43:57;7.63;;;4.10;;
29916;SDS011;16786;49.466;11.068;2022-12-29T15:46:48;7.65;;;3.85;;
29916;SDS011;16786;49.466;11.068;2022-12-29T15:49:15;8.18;;;4.00;;
29916;SDS011;16786;49.466;11.068;2022-12-29T15:51:43;8.80;;;3.85;;
29916;SDS011;16786;49.466;11.068;2022-12-29T15:54:17;7.63;;;4.18;;
29916;SDS011;16786;49.466;11.068;2022-12-29T15:56:49;7.20;;;4.20;;
29916;SDS011;16786;49.466;11.068;2022-12-29T15:59:24;6.00;;;3.80;;
29916;SDS011;16786;49.466;11.068;2022-12-29T16:02:01;9.32;;;4.55;;
29916;SDS011;16786;49.466;11.068;2022-12-29T16:04:37;5.72;;;3.67;;
29916;SDS011;16786;49.466;11.068;2022-12-29T16:07:30;9.45;;;4.85;;
29916;SDS011;16786;49.466;11.068;2022-12-29T16:13:43;11.05;;;4.00;;
29916;SDS011;16786;49.466;11.068;2022-12-29T16:16:07;11.40;;;4.90;;
29916;SDS011;16786;49.466;11.068;2022-12-29T16:18:46;8.85;;;4.15;;
29916;SDS011;16786;49.466;11.068;2022-12-29T16:21:32;9.70;;;4.68;;
29916;SDS011;16786;49.466;11.068;2022-12-29T16:24:05;8.20;;;4.57;;
29916;SDS011;16786;49.466;11.068;2022-12-29T16:26:44;9.65;;;5.03;;
29916;SDS011;16786;49.466;11.068;2022-12-29T16:29:16;8.43;;;4.50;;
29916;SDS011;16786;49.466;11.068;2022-12-29T16:31:53;6.80;;;4.10;;
29916;SDS011;16786;49.466;11.068;2022-12-29T16:37:36;9.38;;;4.55;;
29916;SDS011;16786;49.466;11.068;2022-12-29T16:40:22;13.43;;;4.63;;
29916;SDS011;16786;49.466;11.068;2022-12-29T16:42:55;11.57;;;4.47;;
29916;SDS011;16786;49.466;11.068;2022-12-29T16:50:49;12.27;;;4.47;;
29916;SDS011;16786;49.466;11.068;2022-12-29T16:53:27;8.70;;;4.97;;
29916;SDS011;16786;49.466;11.068;2022-12-29T16:56:01;9.07;;;4.13;;
29916;SDS011;16786;49.466;11.068;2022-12-29T16:58:32;12.50;;;4.22;;
29916;SDS011;16786;49.466;11.068;2022-12-29T17:01:02;8.95;;;4.22;;
29916;SDS011;16786;49.466;11.068;2022-12-29T17:03:35;7.82;;;4.03;;
29916;SDS011;16786;49.466;11.068;2022-12-29T17:06:08;9.32;;;4.13;;
29916;SDS011;16786;49.466;11.068;2022-12-29T17:08:42;8.88;;;4.00;;
29916;SDS011;16786;49.466;11.068;2022-12-29T17:11:21;8.27;;;3.90;;
29916;SDS011;16786;49.466;11.068;2022-12-29T17:17:14;7.32;;;4.03;;
29916;SDS011;16786;49.466;11.068;2022-12-29T17:19:55;12.15;;;6.95;;
29916;SDS011;16786;49.466;11.068;2022-12-29T17:22:29;6.18;;;3.83;;
29916;SDS011;16786;49.466;11.068;2022-12-29T17:24:59;5.90;;;3.88;;
29916;SDS011;16786;49.466;11.068;2022-12-29T17:27:36;8.95;;;4.40;;
29916;SDS011;16786;49.466;11.068;2022-12-29T17:30:19;7.55;;;4.43;;
29916;SDS011;16786;49.466;11.068;2022-12-29T17:33:00;10.32;;;4.75;;
29916;SDS011;16786;49.466;11.068;2022-12-29T17:35:30;13.30;;;5.07;;
29916;SDS011;16786;49.466;11.068;2022-12-29T17:37:57;9.57;;;4.63;;
29916;SDS011;16786;49.466;11.068;2022-12-29T17:40:29;9.48;;;5.05;;
29916;SDS011;16786;49.466;11.068;2022-12-29T17:42:58;13.02;;;4.40;;
29916;SDS011;16786;49.466;11.068;2022-12-29T17:45:30;6.57;;;3.17;;
29916;SDS011;16786;49.466;11.068;2022-12-29T17:50:29;8.15;;;3.30;;
29916;SDS011;16786;49.466;11.068;2022-12-29T17:52:58;7.47;;;3.15;;
29916;SDS011;16786;49.466;11.068;2022-12-29T17:55:29;7.03;;;3.08;;
29916;SDS011;16786;49.466;11.068;2022-12-29T18:00:47;8.27;;;3.40;;
29916;SDS011;16786;49.466;11.068;2022-12-29T18:05:53;8.10;;;3.80;;
29916;SDS011;16786;49.466;11.068;2022-12-29T18:08:21;7.85;;;3.53;;
29916;SDS011;16786;49.466;11.068;2022-12-29T18:10:50;7.35;;;3.53;;
29916;SDS011;16786;49.466;11.068;2022-12-29T18:13:20;7.80;;;3.78;;
29916;SDS011;16786;49.466;11.068;2022-12-29T18:15:56;7.30;;;3.50;;
29916;SDS011;16786;49.466;11.068;2022-12-29T18:18:25;9.73;;;4.30;;